Página principal
METAR-TAF:

METAR-TAF

Aeroportos :

Beja, Portugal

Base Aérea de Beja

latitude: 38-04-40N, longitude: 007-55-57W, altura: 193 m

Observação actual do tempo

O boletim foi feito há 5 horas e 48 minutos, às 23:00 UTC
Vento 5 kt de es-nordeste
Temperatura 9°C
Humidade 46%
Pressão 1009 hPa
Visibilidade 10 km ou mais
sem nuvens abaixo de 1500 metros e sem cumulonimbus

METAR: LPBJ 212300Z 06005KT CAVOK 09/M02 Q1009

Hora: 04:48 (04:48 UTC)

Previsão

O boletim foi feito há 5 horas e 43 minutos, às 23:05 UTC
Previsão válida de 22 às 00 UTC a 22 às 24 UTC
Vento 8 kt de nordeste
Visibilidade 10 km ou mais
sem nuvens abaixo de 1500 metros e sem cumulonimbus
Tornando-se
de 22 às 13 UTC a 22 às 15 UTC
Vento 5 kt de norte
Tornando-se
de 22 às 20 UTC a 22 às 23 UTC
Vento 2 kt com direcção variável

TAF: LPBJ 212305Z 2200/2224 05008KT CAVOK BECMG 2213/2215 35005KT BECMG 2220/2223 VRB02KT

Observações e previsões do tempo de mais de 4000 aeroportos (mensagens METAR e TAF).

As estações disponíveis são os pontos amarelos e vermelhos sobre o mapa.

Mova o rato sobre o mapa para ver o nome da estação.

Depois clique no ponto para visualizar as observações e previsões meteorológicas.

Para alterar o mapa : clique nos botões verdes com uma cruz preta para aumentar o zoom; no botão verde com uma pitada de zoom; ou nas setas verdes para mapas adjacentes.


METAR-TAF: